createdAt,value
2018-02-22T00:02:20.065Z,73.88
2018-02-22T00:04:47.571Z,72.51
2018-02-22T00:07:15.279Z,74.81
2018-02-22T00:09:42.795Z,74.72
2018-02-22T00:12:10.293Z,74.40
2018-02-22T00:14:37.863Z,74.86
2018-02-22T00:17:05.437Z,74.38
2018-02-22T00:19:32.994Z,74.17
2018-02-22T00:22:00.736Z,74.38
2018-02-22T00:24:28.251Z,74.33
2018-02-22T00:26:55.797Z,73.30
2018-02-22T00:29:23.350Z,74.84
2018-02-22T00:31:50.920Z,73.44
2018-02-22T00:34:18.500Z,72.95
2018-02-22T00:36:46.065Z,73.35
2018-02-22T00:39:13.631Z,74.88
2018-02-22T00:41:41.199Z,74.00
2018-02-22T00:44:08.765Z,74.73
2018-02-22T00:46:36.321Z,74.21
2018-02-22T00:49:03.900Z,73.45
2018-02-22T00:51:31.451Z,74.34
2018-02-22T00:53:59.010Z,73.50
2018-02-22T00:56:26.593Z,72.87
2018-02-22T00:58:54.139Z,73.32
2018-02-22T01:01:21.925Z,74.34
2018-02-22T01:03:49.563Z,74.19
2018-02-22T01:06:17.153Z,73.91
2018-02-22T01:08:44.687Z,74.63
2018-02-22T01:11:12.226Z,73.96
2018-02-22T01:13:39.777Z,74.65
2018-02-22T01:16:07.608Z,75.13
2018-02-22T01:18:35.155Z,75.17
2018-02-22T01:21:02.709Z,73.55
2018-02-22T01:23:30.221Z,74.94
2018-02-22T01:25:57.767Z,72.90
2018-02-22T01:28:25.297Z,75.01
2018-02-22T01:30:52.842Z,73.61
2018-02-22T01:33:20.449Z,73.99
2018-02-22T01:35:47.993Z,73.97
2018-02-22T01:38:15.581Z,73.99
2018-02-22T01:40:43.131Z,74.53
2018-02-22T01:43:10.792Z,73.46
2018-02-22T01:45:38.359Z,75.22
2018-02-22T01:48:05.896Z,73.77
2018-02-22T01:50:33.467Z,73.74
2018-02-22T01:53:01.022Z,73.94
2018-02-22T01:55:28.589Z,73.02
2018-02-22T01:57:56.146Z,74.88
2018-02-22T02:00:23.825Z,73.46
2018-02-22T02:02:51.401Z,74.83
2018-02-22T02:05:18.993Z,74.98
2018-02-22T02:07:46.556Z,75.44
2018-02-22T02:10:14.090Z,74.66
2018-02-22T02:12:41.653Z,74.36
2018-02-22T02:15:09.167Z,73.64
2018-02-22T02:17:36.692Z,74.17
2018-02-22T02:20:04.189Z,74.03
2018-02-22T02:22:31.847Z,74.74
2018-02-22T02:24:59.422Z,73.77
2018-02-22T02:27:26.947Z,74.54
2018-02-22T02:29:54.502Z,73.64
2018-02-22T02:32:22.079Z,74.78
2018-02-22T02:34:49.635Z,73.60
2018-02-22T02:37:17.170Z,74.50
2018-02-22T02:39:44.697Z,74.52
2018-02-22T02:42:12.206Z,74.69
2018-02-22T02:44:39.721Z,74.41
2018-02-22T02:47:07.278Z,73.58
2018-02-22T02:49:34.854Z,74.79
2018-02-22T02:52:02.385Z,74.48
2018-02-22T02:54:29.931Z,75.22
2018-02-22T02:56:57.617Z,74.01
2018-02-22T02:59:25.140Z,73.98
2018-02-22T03:01:52.763Z,75.10
2018-02-22T03:04:20.299Z,73.71
2018-02-22T03:06:47.812Z,74.81
2018-02-22T03:09:15.345Z,74.85
2018-02-22T03:11:42.872Z,74.61
2018-02-22T03:14:10.514Z,74.34
2018-02-22T03:16:38.035Z,74.82
2018-02-22T03:19:05.543Z,74.57
2018-02-22T03:21:33.066Z,74.35
2018-02-22T03:24:00.646Z,73.23
2018-02-22T03:26:28.192Z,74.40
2018-02-22T03:28:55.715Z,75.44
2018-02-22T03:31:23.242Z,74.97
2018-02-22T03:33:51.037Z,74.60
2018-02-22T03:36:18.555Z,75.22
2018-02-22T03:38:46.079Z,74.92
2018-02-22T03:41:13.681Z,75.35
2018-02-22T03:43:41.214Z,75.87
2018-02-22T03:46:08.778Z,74.08
2018-02-22T03:48:36.295Z,75.16
2018-02-22T03:51:03.827Z,75.67
2018-02-22T03:53:31.365Z,75.81
2018-02-22T03:55:58.913Z,74.69
2018-02-22T03:58:26.464Z,75.82
2018-02-22T04:00:54.014Z,75.45
2018-02-22T04:03:21.531Z,73.95
2018-02-22T04:05:49.053Z,75.82
2018-02-22T04:08:16.575Z,73.96
2018-02-22T04:10:44.160Z,73.40
2018-02-22T04:13:11.704Z,73.76
2018-02-22T04:15:39.211Z,73.84
2018-02-22T04:18:06.736Z,73.98
2018-02-22T04:20:34.862Z,74.88
2018-02-22T04:23:02.426Z,73.52
2018-02-22T04:25:30.213Z,74.37
2018-02-22T04:27:57.768Z,74.35
2018-02-22T04:30:25.314Z,73.88
2018-02-22T04:32:52.870Z,73.47
2018-02-22T04:35:20.460Z,73.57
2018-02-22T04:37:48.038Z,74.37
2018-02-22T04:40:15.525Z,73.74
2018-02-22T04:42:43.045Z,74.20
2018-02-22T04:45:10.550Z,74.65
2018-02-22T04:47:38.079Z,74.81
2018-02-22T04:50:05.641Z,73.21
2018-02-22T04:52:33.193Z,75.08
2018-02-22T04:55:00.721Z,73.01
2018-02-22T04:57:28.281Z,74.84
2018-02-22T04:59:55.818Z,74.04
2018-02-22T05:02:23.351Z,74.66
2018-02-22T05:04:50.904Z,73.45
2018-02-22T05:07:18.501Z,74.11
2018-02-22T05:09:46.050Z,73.24
2018-02-22T05:12:13.613Z,73.07
2018-02-22T05:14:41.176Z,75.55
2018-02-22T05:17:09.499Z,73.22
2018-02-22T05:19:37.051Z,73.84
2018-02-22T05:22:04.664Z,73.95
2018-02-22T05:24:32.187Z,73.36
2018-02-22T05:26:59.721Z,73.66
2018-02-22T05:29:27.270Z,73.66
2018-02-22T05:31:54.953Z,73.32
2018-02-22T05:34:22.482Z,74.17
2018-02-22T05:36:50.180Z,75.10
2018-02-22T05:39:17.720Z,73.64
2018-02-22T05:41:45.466Z,73.54
2018-02-22T05:44:13.188Z,73.76
2018-02-22T05:46:40.737Z,73.84
2018-02-22T05:49:08.265Z,73.58
2018-02-22T05:51:35.804Z,74.30
2018-02-22T05:54:03.327Z,73.04
2018-02-22T05:56:30.876Z,73.02
2018-02-22T05:58:58.394Z,73.97
2018-02-22T06:01:25.930Z,71.54
2018-02-22T06:03:53.434Z,72.10
2018-02-22T06:06:20.945Z,73.83
2018-02-22T06:08:48.450Z,73.82
2018-02-22T06:11:16.053Z,73.16
2018-02-22T06:13:43.595Z,73.62
2018-02-22T06:16:11.123Z,72.36
2018-02-22T06:18:38.637Z,72.58
2018-02-22T06:21:06.172Z,73.46
2018-02-22T06:23:33.942Z,72.29
2018-02-22T06:26:01.490Z,71.41
2018-02-22T06:28:29.041Z,72.66
2018-02-22T06:30:56.820Z,72.76
2018-02-22T06:33:24.348Z,73.89
2018-02-22T06:35:51.876Z,71.50
2018-02-22T06:38:19.417Z,71.32
2018-02-22T06:40:46.923Z,71.85
2018-02-22T06:43:14.454Z,71.55
2018-02-22T06:45:41.984Z,71.12
2018-02-22T06:48:09.508Z,71.54
2018-02-22T06:50:37.043Z,69.52
2018-02-22T06:53:04.538Z,71.36
2018-02-22T06:55:32.089Z,72.35
2018-02-22T06:57:59.676Z,70.66
2018-02-22T07:00:27.197Z,70.29
2018-02-22T07:02:54.977Z,71.29
2018-02-22T07:05:22.504Z,70.92
2018-02-22T07:07:50.013Z,69.23
2018-02-22T07:10:18.450Z,70.16
2018-02-22T07:12:45.995Z,71.39
2018-02-22T07:15:13.537Z,69.67
2018-02-22T07:17:41.059Z,69.18
2018-02-22T07:20:08.602Z,78.22
2018-02-22T07:22:36.135Z,80.85
2018-02-22T07:25:03.690Z,76.87
2018-02-22T07:27:31.211Z,75.90
2018-02-22T07:29:58.769Z,75.24
2018-02-22T07:32:26.318Z,67.03
2018-02-22T07:34:53.843Z,62.53
2018-02-22T07:37:21.482Z,62.18
2018-02-22T07:39:48.997Z,61.47
2018-02-22T07:42:16.519Z,61.76
2018-02-22T07:44:44.070Z,61.04
2018-02-22T07:47:11.591Z,60.60
2018-02-22T07:49:39.161Z,60.41
2018-02-22T07:52:06.696Z,60.05
2018-02-22T07:54:34.230Z,59.31
2018-02-22T07:57:01.747Z,59.25
2018-02-22T07:59:29.323Z,59.18
2018-02-22T08:01:56.881Z,58.39
2018-02-22T08:04:24.472Z,61.19
2018-02-22T08:06:52.001Z,60.30
2018-02-22T08:09:19.585Z,61.72
2018-02-22T08:11:47.099Z,61.55
2018-02-22T08:14:14.634Z,62.40
2018-02-22T08:16:42.171Z,62.95
2018-02-22T08:19:09.678Z,62.25
2018-02-22T08:21:37.213Z,62.14
2018-02-22T08:24:04.730Z,61.82
2018-02-22T08:26:32.274Z,61.59
2018-02-22T08:28:59.792Z,61.15
2018-02-22T08:31:27.321Z,60.77
2018-02-22T08:33:54.847Z,59.76
2018-02-22T08:36:22.549Z,56.92
2018-02-22T08:38:50.084Z,55.99
2018-02-22T08:41:17.616Z,55.90
2018-02-22T08:43:45.151Z,52.92
2018-02-22T08:46:12.672Z,53.23
2018-02-22T08:48:40.201Z,51.32
2018-02-22T08:51:07.710Z,50.68
2018-02-22T08:53:35.225Z,46.83
2018-02-22T08:56:02.764Z,44.01
2018-02-22T08:58:30.325Z,43.43
2018-02-22T09:00:57.895Z,42.70
2018-02-22T09:03:25.420Z,42.23
2018-02-22T09:05:52.964Z,42.64
2018-02-22T09:08:20.484Z,42.41
2018-02-22T09:10:48.013Z,41.13
2018-02-22T09:13:15.547Z,42.69
2018-02-22T09:15:43.151Z,43.11
2018-02-22T09:18:10.672Z,43.86
2018-02-22T09:20:38.702Z,44.30
2018-02-22T09:23:06.207Z,43.93
2018-02-22T09:25:33.742Z,42.30
2018-02-22T09:28:01.246Z,41.78
2018-02-22T09:30:28.773Z,42.84
2018-02-22T09:32:56.283Z,45.25
2018-02-22T09:35:23.804Z,45.26
2018-02-22T09:37:51.308Z,45.09
2018-02-22T09:40:18.806Z,45.97
2018-02-22T09:42:46.349Z,47.62
2018-02-22T09:45:14.047Z,48.88
2018-02-22T09:47:41.578Z,48.48
2018-02-22T09:50:09.111Z,48.96
2018-02-22T09:52:36.630Z,48.33
2018-02-22T09:55:04.162Z,47.46
2018-02-22T09:57:31.680Z,46.64
2018-02-22T09:59:59.203Z,46.64
2018-02-22T10:02:26.747Z,47.91
2018-02-22T10:04:54.269Z,47.61
2018-02-22T10:07:21.787Z,46.84
2018-02-22T10:09:49.290Z,46.71
2018-02-22T10:12:16.812Z,46.96
2018-02-22T10:14:44.360Z,46.94
2018-02-22T10:17:12.095Z,48.69
2018-02-22T10:19:40.165Z,48.73
2018-02-22T10:22:07.677Z,49.10
2018-02-22T10:24:35.204Z,48.91
2018-02-22T10:27:02.761Z,48.60
2018-02-22T10:29:30.278Z,48.36
2018-02-22T10:31:57.858Z,48.83
2018-02-22T10:34:25.377Z,49.41
2018-02-22T10:36:52.886Z,48.88
2018-02-22T10:39:20.425Z,48.57
2018-02-22T10:41:47.949Z,48.14
2018-02-22T10:44:15.493Z,48.11
2018-02-22T10:46:43.016Z,49.58
2018-02-22T10:49:10.528Z,47.77
2018-02-22T10:51:38.046Z,47.25
2018-02-22T10:54:05.571Z,48.04
2018-02-22T10:56:33.176Z,47.21
2018-02-22T10:59:00.699Z,47.03
2018-02-22T11:01:33.663Z,48.32
2018-02-22T11:04:01.179Z,47.39
2018-02-22T11:06:28.690Z,47.74
2018-02-22T11:08:56.194Z,44.47
2018-02-22T11:11:23.708Z,41.56
2018-02-22T11:13:51.285Z,41.38
2018-02-22T11:16:18.797Z,42.34
2018-02-22T11:18:46.334Z,42.54
2018-02-22T11:21:13.855Z,42.94
2018-02-22T11:23:41.398Z,43.33
2018-02-22T11:26:08.965Z,45.29
2018-02-22T11:28:36.493Z,45.21
2018-02-22T11:31:04.092Z,44.73
2018-02-22T11:33:31.626Z,46.13
2018-02-22T11:35:59.160Z,46.05
2018-02-22T11:38:26.686Z,44.89
2018-02-22T11:40:54.202Z,45.51
2018-02-22T11:43:21.747Z,46.14
2018-02-22T11:45:50.023Z,46.32
2018-02-22T11:48:17.557Z,45.03
2018-02-22T11:50:45.092Z,44.56
2018-02-22T11:53:12.640Z,43.53
2018-02-22T11:55:40.153Z,42.95
2018-02-22T11:58:07.730Z,42.15
2018-02-22T12:00:35.266Z,41.50
2018-02-22T12:03:02.791Z,42.38
2018-02-22T12:05:30.318Z,42.08
2018-02-22T12:07:57.864Z,40.79
2018-02-22T12:10:25.382Z,40.08
2018-02-22T12:12:54.940Z,40.91
2018-02-22T12:15:22.491Z,40.24
2018-02-22T12:17:50.027Z,40.88
2018-02-22T12:20:17.572Z,41.37
2018-02-22T12:22:46.524Z,41.99
2018-02-22T12:25:14.030Z,42.07
2018-02-22T12:27:41.551Z,43.22
2018-02-22T12:30:09.227Z,44.04
2018-02-22T12:32:36.759Z,44.64
2018-02-22T12:35:04.300Z,45.73
2018-02-22T12:37:31.810Z,45.31
2018-02-22T12:39:59.394Z,45.04
2018-02-22T12:42:26.967Z,46.25
2018-02-22T12:44:54.630Z,46.98
2018-02-22T12:47:22.165Z,46.57
2018-02-22T12:49:49.683Z,47.13
2018-02-22T12:52:17.333Z,50.14
2018-02-22T12:54:44.884Z,49.67
2018-02-22T12:57:12.550Z,49.76
2018-02-22T12:59:40.094Z,50.19
2018-02-22T13:02:07.652Z,50.48
2018-02-22T13:04:35.164Z,51.21
2018-02-22T13:07:02.706Z,50.94
2018-02-22T13:09:30.273Z,51.89
2018-02-22T13:11:57.796Z,53.00
2018-02-22T13:14:25.374Z,51.12
2018-02-22T13:16:52.916Z,50.87
2018-02-22T13:19:20.441Z,50.87
2018-02-22T13:21:47.959Z,50.36
2018-02-22T13:24:15.492Z,52.80
2018-02-22T13:26:43.054Z,53.50
2018-02-22T13:29:10.605Z,52.03
2018-02-22T13:31:38.170Z,51.42
2018-02-22T13:37:25.423Z,51.23
2018-02-22T13:39:52.939Z,51.12
2018-02-22T13:42:20.489Z,52.79
2018-02-22T13:44:59.755Z,52.93
2018-02-22T13:47:27.313Z,52.74
2018-02-22T13:50:06.654Z,53.27
2018-02-22T13:52:34.182Z,52.91
2018-02-22T13:55:01.976Z,53.63
2018-02-22T13:57:29.523Z,54.69
2018-02-22T13:59:57.044Z,54.78
2018-02-22T14:02:25.050Z,55.82
2018-02-22T14:04:52.739Z,54.62
2018-02-22T14:07:20.248Z,54.31
2018-02-22T14:09:47.849Z,54.33
2018-02-22T14:12:15.362Z,54.81
2018-02-22T14:14:42.870Z,55.67
2018-02-22T14:17:10.551Z,57.76
2018-02-22T14:19:38.431Z,57.77
2018-02-22T14:22:05.962Z,56.98
2018-02-22T14:24:33.541Z,56.42
2018-02-22T14:27:01.064Z,56.65
2018-02-22T14:29:28.583Z,57.52
2018-02-22T14:31:56.108Z,56.62
2018-02-22T14:34:23.617Z,55.15
2018-02-22T14:36:51.257Z,55.13
2018-02-22T14:39:18.808Z,56.47
2018-02-22T14:41:46.531Z,55.80
2018-02-22T14:44:14.071Z,55.30
2018-02-22T14:46:41.612Z,55.88
2018-02-22T14:49:09.144Z,55.04
2018-02-22T14:51:36.747Z,54.40
2018-02-22T14:54:04.293Z,54.73
2018-02-22T14:56:31.830Z,55.09
2018-02-22T14:59:00.337Z,54.62
2018-02-22T15:01:28.170Z,54.59
2018-02-22T15:03:55.693Z,54.11
2018-02-22T15:06:23.202Z,54.89
2018-02-22T15:08:50.751Z,54.14
2018-02-22T15:11:18.355Z,56.70
2018-02-22T15:13:46.022Z,57.25
2018-02-22T15:16:13.564Z,55.43
2018-02-22T15:18:41.087Z,55.79
2018-02-22T15:21:08.638Z,55.42
2018-02-22T15:23:36.180Z,54.99
2018-02-22T15:26:03.734Z,54.74
2018-02-22T15:28:31.277Z,55.13
2018-02-22T15:30:58.824Z,55.91
2018-02-22T15:33:26.406Z,55.99
2018-02-22T15:35:53.926Z,57.42
2018-02-22T15:38:21.449Z,58.13
2018-02-22T15:40:49.061Z,57.35
2018-02-22T15:43:16.616Z,57.86
2018-02-22T15:45:44.125Z,57.65
2018-02-22T15:48:11.656Z,58.44
2018-02-22T15:50:39.245Z,57.60
2018-02-22T15:53:06.769Z,58.01
2018-02-22T15:55:34.306Z,57.21
2018-02-22T15:58:01.821Z,57.11
2018-02-22T16:00:29.388Z,56.92
2018-02-22T16:02:56.991Z,57.30
2018-02-22T16:05:24.527Z,57.47
2018-02-22T16:07:52.039Z,58.33
2018-02-22T16:10:19.590Z,58.22
2018-02-22T16:12:47.198Z,58.65
2018-02-22T16:15:14.711Z,58.08
2018-02-22T16:17:42.463Z,58.24
2018-02-22T16:20:10.063Z,58.21
2018-02-22T16:22:37.658Z,58.90
2018-02-22T16:25:05.254Z,59.42
2018-02-22T16:27:32.811Z,58.90
2018-02-22T16:30:00.390Z,61.11
2018-02-22T16:32:27.968Z,60.61
2018-02-22T16:34:55.839Z,60.54
2018-02-22T16:37:23.373Z,60.21
2018-02-22T16:39:50.923Z,59.95
2018-02-22T16:42:18.531Z,60.67
2018-02-22T16:44:46.056Z,59.24
2018-02-22T16:47:13.641Z,59.50
2018-02-22T16:49:41.349Z,62.39
2018-02-22T16:52:08.901Z,60.84
2018-02-22T16:54:36.660Z,61.16
2018-02-22T16:57:04.265Z,60.68
2018-02-22T16:59:31.852Z,60.10
2018-02-22T17:01:59.701Z,61.40
2018-02-22T17:04:27.250Z,60.38
2018-02-22T17:06:54.877Z,60.22
2018-02-22T17:09:22.438Z,63.12
2018-02-22T17:11:49.989Z,61.19
2018-02-22T17:14:17.676Z,61.70
2018-02-22T17:16:45.188Z,61.24
2018-02-22T17:19:12.723Z,61.45
2018-02-22T17:21:40.247Z,62.33
2018-02-22T17:24:07.752Z,61.41
2018-02-22T17:26:40.830Z,61.08
2018-02-22T17:29:13.996Z,61.00
2018-02-22T17:31:46.954Z,61.79
2018-02-22T17:34:14.539Z,61.68
2018-02-22T17:36:54.901Z,62.67
2018-02-22T17:39:24.260Z,62.17
2018-02-22T17:41:51.866Z,61.57
2018-02-22T17:44:19.421Z,61.63
2018-02-22T17:46:47.280Z,62.50
2018-02-22T17:49:14.887Z,62.62
2018-02-22T17:51:42.660Z,63.52
2018-02-22T17:54:10.274Z,64.44
2018-02-22T17:56:37.944Z,63.13
2018-02-22T17:59:05.491Z,63.21
2018-02-22T18:01:33.004Z,63.27
2018-02-22T18:04:00.877Z,64.44
2018-02-22T18:06:28.453Z,62.22
2018-02-22T18:08:56.677Z,62.37
2018-02-22T18:11:24.254Z,61.90
2018-02-22T18:13:51.772Z,62.44
2018-02-22T18:16:19.290Z,62.11
2018-02-22T18:18:46.812Z,61.75
2018-02-22T18:21:14.398Z,62.90
2018-02-22T18:23:42.585Z,63.37
2018-02-22T18:26:10.589Z,62.31
2018-02-22T18:28:38.114Z,62.10
2018-02-22T18:31:05.636Z,73.21
2018-02-22T18:33:33.185Z,72.48
2018-02-22T18:36:00.864Z,78.62
2018-02-22T18:38:28.492Z,78.39
2018-02-22T18:41:00.094Z,75.61
2018-02-22T18:43:33.211Z,73.97
2018-02-22T18:46:00.807Z,73.74
2018-02-22T18:48:28.346Z,73.82
2018-02-22T18:50:55.893Z,72.68
2018-02-22T18:53:23.467Z,74.01
2018-02-22T18:55:51.059Z,73.09
2018-02-22T18:58:18.697Z,74.32
2018-02-22T19:00:46.319Z,72.48
2018-02-22T19:03:14.064Z,73.37
2018-02-22T19:05:41.599Z,73.96
2018-02-22T19:08:09.428Z,73.83
2018-02-22T19:10:37.022Z,74.65
2018-02-22T19:13:04.856Z,75.12
2018-02-22T19:15:32.435Z,74.84
2018-02-22T19:18:00.066Z,74.33
2018-02-22T19:20:27.715Z,72.98
2018-02-22T19:22:55.315Z,74.62
2018-02-22T19:27:58.941Z,74.02
2018-02-22T19:30:26.532Z,77.62
2018-02-22T19:32:54.150Z,76.12
2018-02-22T19:35:21.713Z,76.06
2018-02-22T19:37:49.274Z,75.08
2018-02-22T19:40:16.859Z,76.12
2018-02-22T19:42:44.482Z,74.79
2018-02-22T19:45:12.051Z,74.33
2018-02-22T19:47:39.656Z,75.93
2018-02-22T19:50:07.297Z,75.07
2018-02-22T19:52:34.848Z,76.21
2018-02-22T19:55:02.444Z,75.50
2018-02-22T19:57:30.045Z,74.88
2018-02-22T19:59:57.636Z,75.56
2018-02-22T20:02:25.142Z,75.29
2018-02-22T20:04:52.677Z,75.40
2018-02-22T20:07:20.308Z,75.64
2018-02-22T20:09:47.876Z,77.08
2018-02-22T20:12:15.426Z,76.13
2018-02-22T20:14:42.982Z,76.11
2018-02-22T20:17:10.577Z,75.35
2018-02-22T20:19:38.122Z,76.28
2018-02-22T20:22:05.633Z,75.08
2018-02-22T20:24:37.325Z,74.12
2018-02-22T20:27:04.931Z,75.66
2018-02-22T20:29:33.408Z,74.80
2018-02-22T20:32:00.992Z,75.04
2018-02-22T20:34:28.524Z,76.29
2018-02-22T20:36:56.179Z,76.00
2018-02-22T20:39:23.783Z,74.84
2018-02-22T20:41:51.314Z,75.50
2018-02-22T20:44:18.870Z,76.08
2018-02-22T20:46:46.401Z,76.22
2018-02-22T20:49:14.287Z,75.57
2018-02-22T20:51:47.386Z,74.64
2018-02-22T20:54:14.931Z,76.55
2018-02-22T20:56:43.189Z,75.36
2018-02-22T20:59:10.773Z,76.28
2018-02-22T21:01:38.363Z,77.13
2018-02-22T21:04:21.433Z,76.44
2018-02-22T21:06:49.026Z,76.22
2018-02-22T21:09:16.626Z,76.94
2018-02-22T21:11:44.232Z,75.63
2018-02-22T21:14:11.773Z,74.85
2018-02-22T21:16:39.329Z,75.54
2018-02-22T21:19:06.930Z,75.98
2018-02-22T21:21:34.497Z,75.90
2018-02-22T21:24:02.132Z,76.04
2018-02-22T21:26:29.682Z,76.45
2018-02-22T21:28:57.270Z,75.57
2018-02-22T21:31:24.907Z,76.16
2018-02-22T21:33:52.505Z,75.57
2018-02-22T21:36:20.045Z,75.13
2018-02-22T21:38:47.613Z,75.71
2018-02-22T21:41:15.234Z,76.18
2018-02-22T21:43:42.827Z,75.68
2018-02-22T21:46:10.438Z,75.56
2018-02-22T21:48:38.010Z,76.58
2018-02-22T21:51:05.611Z,77.06
2018-02-22T21:53:33.211Z,76.58
2018-02-22T21:56:00.782Z,76.59
2018-02-22T21:58:28.327Z,75.83
2018-02-22T22:00:55.896Z,75.30
2018-02-22T22:03:23.478Z,76.33
2018-02-22T22:05:51.016Z,76.01
2018-02-22T22:08:18.785Z,76.61
2018-02-22T22:10:46.930Z,75.86
2018-02-22T22:13:14.485Z,76.42
2018-02-22T22:15:42.101Z,76.62
2018-02-22T22:18:09.680Z,76.92
2018-02-22T22:20:37.242Z,75.51
2018-02-22T22:23:04.880Z,76.74
2018-02-22T22:25:32.469Z,76.56
2018-02-22T22:28:00.058Z,75.95
2018-02-22T22:30:27.716Z,76.97
2018-02-22T22:32:55.308Z,76.90
2018-02-22T22:35:22.854Z,76.25
2018-02-22T22:37:50.469Z,76.21
2018-02-22T22:40:18.052Z,75.93
2018-02-22T22:42:45.679Z,76.92
2018-02-22T22:45:13.297Z,76.15
2018-02-22T22:47:40.806Z,75.29
2018-02-22T22:50:08.381Z,76.15
2018-02-22T22:52:35.919Z,76.81
2018-02-22T22:55:03.512Z,76.53
2018-02-22T22:57:31.047Z,75.64
2018-02-22T22:59:58.631Z,76.80
2018-02-22T23:02:27.313Z,76.76
2018-02-22T23:04:55.132Z,77.12
2018-02-22T23:07:22.687Z,76.80
2018-02-22T23:09:51.512Z,76.26
2018-02-22T23:12:19.117Z,77.13
2018-02-22T23:14:46.697Z,76.44
2018-02-22T23:17:14.273Z,76.37
2018-02-22T23:19:41.789Z,77.15
2018-02-22T23:22:09.401Z,76.92
2018-02-22T23:24:37.007Z,77.25
2018-02-22T23:27:04.564Z,77.14
2018-02-22T23:29:32.073Z,76.47
2018-02-22T23:31:59.633Z,76.77
2018-02-22T23:34:27.178Z,76.80
2018-02-22T23:36:54.713Z,76.65
2018-02-22T23:39:22.309Z,77.32
2018-02-22T23:42:07.621Z,76.69
2018-02-22T23:44:35.149Z,76.95
2018-02-22T23:47:02.657Z,77.04
2018-02-22T23:49:30.236Z,76.82
2018-02-22T23:51:57.800Z,76.24
2018-02-22T23:54:25.567Z,77.17
2018-02-22T23:56:53.289Z,76.78
2018-02-22T23:59:20.855Z,76.93
